Mon, 21 Jun 2021 05:14:49 UTC

Information for RPM brotli-1.0.7-11.fc33.ppc64le.rpm

ID21577269
Namebrotli
Version1.0.7
Release11.fc33
Epoch
Archppc64le
SummaryLossless compression algorithm
DescriptionBrotli is a generic-purpose lossless compression algorithm that compresses data using a combination of a modern variant of the LZ77 algorithm, Huffman coding and 2nd order context modeling, with a compression ratio comparable to the best currently available general-purpose compression methods. It is similar in speed with deflate but offers more dense compression.
Build Time2020-05-23 16:39:39 GMT
Size368,261
b74cbcdb2c73ad57425bdcb7bb738953
LicenseMIT
Buildrootf33-python-20856207-1539639
Provides
brotli = 1.0.7-11.fc33
brotli(ppc-64) = 1.0.7-11.fc33
Obsoletes No Obsoletes
Conflicts No Conflicts
Requires
libbrotli(ppc-64) = 1.0.7-11.fc33
libc.so.6()(64bit)
libc.so.6(GLIBC_2.17)(64bit)
libm.so.6()(64bit)
libm.so.6(GLIBC_2.29)(64bit)
rpmlib(CompressedFileNames) <= 3.0.4-1
rpmlib(FileDigests) <= 4.6.0-1
rpmlib(PayloadFilesHavePrefix) <= 4.0-1
rpmlib(PayloadIsZstd) <= 5.4.18-1
rtld(GNU_HASH)
Recommends No Recommends
Suggests No Suggests
Supplements No Supplements
Enhances No Enhances
Files
1 through 4 of 4
Name ascending sort Size
/usr/bin/brotli858,800
/usr/lib/.build-id0
/usr/lib/.build-id/0f0
/usr/lib/.build-id/0f/cb79010f981654345dfc5c5d15f754e2c9821126
Component of
Page:
1 through 50 of 10510 >>>
Buildroot descending sort Created State
f33-build-22187353-1884844 2020-08-14 03:23:48 expired
f33-build-22187129-1884738 2020-08-14 03:06:28 expired
f33-build-22187108-1884738 2020-08-14 03:05:30 expired
f33-build-22187079-1884738 2020-08-14 03:03:52 expired
f33-build-22186279-1884684 2020-08-14 01:32:20 expired
f33-build-22185977-1884442 2020-08-14 00:55:17 expired
f33-build-22185236-1884442 2020-08-13 23:37:30 expired
f33-build-22184785-1884442 2020-08-13 22:56:06 expired
f33-build-22184415-1884267 2020-08-13 22:10:50 expired
f33-build-22183601-1883803 2020-08-13 20:23:47 expired
f33-build-22183520-1883803 2020-08-13 20:10:19 expired
f33-build-22183445-1883803 2020-08-13 19:59:32 expired
f33-build-22183122-1883803 2020-08-13 18:18:03 expired
f33-build-22182917-1883803 2020-08-13 17:17:53 expired
f33-build-22182820-1883803 2020-08-13 16:58:32 expired
f33-build-22182661-1883691 2020-08-13 16:11:22 expired
f33-build-22182480-1883590 2020-08-13 15:50:28 expired
f33-build-22182341-1883560 2020-08-13 15:26:30 expired
f33-build-22182040-1883278 2020-08-13 14:48:15 expired
f33-build-22181127-1882884 2020-08-13 13:01:23 expired
f33-build-22181111-1882884 2020-08-13 12:58:43 expired
f33-build-22181089-1882884 2020-08-13 12:56:56 expired
f33-build-22180015-1882497 2020-08-13 11:06:54 expired
f33-build-22179117-1882497 2020-08-13 09:37:19 expired
f33-build-22179095-1882497 2020-08-13 09:34:59 expired
f33-build-22179079-1882497 2020-08-13 09:32:27 expired
f33-build-22178964-1882497 2020-08-13 09:16:02 expired
f33-build-22178560-1882497 2020-08-13 08:38:25 expired
f33-build-22178552-1882497 2020-08-13 08:38:06 expired
f33-build-22178545-1882497 2020-08-13 08:38:05 expired
f33-build-22178543-1882497 2020-08-13 08:38:05 expired
f33-build-22178534-1882497 2020-08-13 08:37:46 expired
f33-build-22178527-1882497 2020-08-13 08:37:27 expired
f33-build-22178387-1882497 2020-08-13 08:26:05 expired
f33-build-22178238-1882497 2020-08-13 08:11:24 expired
f33-build-22178134-1882497 2020-08-13 07:58:57 expired
f33-build-22178133-1882497 2020-08-13 07:58:57 expired
f33-build-22178132-1882497 2020-08-13 07:58:56 expired
f33-build-22178131-1882497 2020-08-13 07:58:56 expired
f33-build-22178128-1882497 2020-08-13 07:58:56 expired
f33-build-22178123-1882497 2020-08-13 07:58:37 expired
f33-build-22178121-1882497 2020-08-13 07:58:36 expired
f33-build-22178120-1882497 2020-08-13 07:58:36 expired
f33-build-22178119-1882497 2020-08-13 07:58:36 expired
f33-build-22178118-1882497 2020-08-13 07:58:36 expired
f33-build-22178113-1882497 2020-08-13 07:58:20 expired
f33-build-22178109-1882497 2020-08-13 07:58:17 expired
f33-build-22178108-1882497 2020-08-13 07:58:17 expired
f33-build-22178106-1882497 2020-08-13 07:58:17 expired
f33-build-22178102-1882497 2020-08-13 07:58:16 expired